sensor_id;sensor_type;location;lat;lon;timestamp;P1;durP1;ratioP1;P2;durP2;ratioP2
20997;SDS011;10657;51.276;6.390;2024-03-07T00:00:29;37.67;;;23.45;;
20997;SDS011;10657;51.276;6.390;2024-03-07T00:02:56;17.85;;;10.05;;
20997;SDS011;10657;51.276;6.390;2024-03-07T00:05:25;22.38;;;13.13;;
20997;SDS011;10657;51.276;6.390;2024-03-07T00:07:55;16.70;;;9.70;;
20997;SDS011;10657;51.276;6.390;2024-03-07T00:10:22;22.80;;;12.13;;
20997;SDS011;10657;51.276;6.390;2024-03-07T00:12:49;15.68;;;9.00;;
20997;SDS011;10657;51.276;6.390;2024-03-07T00:15:16;24.38;;;11.98;;
20997;SDS011;10657;51.276;6.390;2024-03-07T00:17:43;19.70;;;11.10;;
20997;SDS011;10657;51.276;6.390;2024-03-07T00:20:10;20.02;;;10.90;;
20997;SDS011;10657;51.276;6.390;2024-03-07T00:22:42;20.77;;;11.73;;
20997;SDS011;10657;51.276;6.390;2024-03-07T00:25:09;20.27;;;11.05;;
20997;SDS011;10657;51.276;6.390;2024-03-07T00:27:37;21.20;;;10.25;;
20997;SDS011;10657;51.276;6.390;2024-03-07T00:30:07;20.17;;;11.25;;
20997;SDS011;10657;51.276;6.390;2024-03-07T00:32:35;10.32;;;6.28;;
20997;SDS011;10657;51.276;6.390;2024-03-07T00:35:03;19.75;;;11.05;;
20997;SDS011;10657;51.276;6.390;2024-03-07T00:37:29;19.85;;;11.55;;
20997;SDS011;10657;51.276;6.390;2024-03-07T00:39:57;18.58;;;9.60;;
20997;SDS011;10657;51.276;6.390;2024-03-07T00:42:24;20.58;;;11.00;;
20997;SDS011;10657;51.276;6.390;2024-03-07T00:44:50;20.98;;;12.05;;
20997;SDS011;10657;51.276;6.390;2024-03-07T00:47:17;23.83;;;12.45;;
20997;SDS011;10657;51.276;6.390;2024-03-07T00:49:44;25.73;;;14.82;;
20997;SDS011;10657;51.276;6.390;2024-03-07T00:52:12;29.50;;;16.83;;
20997;SDS011;10657;51.276;6.390;2024-03-07T00:54:40;28.40;;;15.65;;
20997;SDS011;10657;51.276;6.390;2024-03-07T00:57:07;30.05;;;16.88;;
20997;SDS011;10657;51.276;6.390;2024-03-07T00:59:34;22.77;;;12.73;;
20997;SDS011;10657;51.276;6.390;2024-03-07T01:02:01;26.15;;;14.65;;
20997;SDS011;10657;51.276;6.390;2024-03-07T01:04:28;23.40;;;12.55;;
20997;SDS011;10657;51.276;6.390;2024-03-07T01:06:57;20.85;;;11.77;;
20997;SDS011;10657;51.276;6.390;2024-03-07T01:09:27;20.55;;;11.60;;
20997;SDS011;10657;51.276;6.390;2024-03-07T01:11:54;19.23;;;11.43;;
20997;SDS011;10657;51.276;6.390;2024-03-07T01:14:22;21.92;;;12.55;;
20997;SDS011;10657;51.276;6.390;2024-03-07T01:16:49;19.30;;;10.68;;
20997;SDS011;10657;51.276;6.390;2024-03-07T01:19:16;22.98;;;12.38;;
20997;SDS011;10657;51.276;6.390;2024-03-07T01:21:43;21.20;;;12.05;;
20997;SDS011;10657;51.276;6.390;2024-03-07T01:24:10;23.23;;;12.55;;
20997;SDS011;10657;51.276;6.390;2024-03-07T01:26:37;23.02;;;11.15;;
20997;SDS011;10657;51.276;6.390;2024-03-07T01:29:03;18.25;;;10.10;;
20997;SDS011;10657;51.276;6.390;2024-03-07T01:31:33;17.02;;;9.23;;
20997;SDS011;10657;51.276;6.390;2024-03-07T01:34:00;22.42;;;12.18;;
20997;SDS011;10657;51.276;6.390;2024-03-07T01:36:26;21.88;;;11.32;;
20997;SDS011;10657;51.276;6.390;2024-03-07T01:38:53;21.55;;;11.20;;
20997;SDS011;10657;51.276;6.390;2024-03-07T01:41:23;13.60;;;7.03;;
20997;SDS011;10657;51.276;6.390;2024-03-07T01:43:50;21.85;;;11.27;;
20997;SDS011;10657;51.276;6.390;2024-03-07T01:46:17;21.58;;;10.98;;
20997;SDS011;10657;51.276;6.390;2024-03-07T01:48:43;24.92;;;13.15;;
20997;SDS011;10657;51.276;6.390;2024-03-07T01:51:10;24.33;;;12.10;;
20997;SDS011;10657;51.276;6.390;2024-03-07T01:53:37;26.48;;;13.57;;
20997;SDS011;10657;51.276;6.390;2024-03-07T01:56:04;21.45;;;11.98;;
20997;SDS011;10657;51.276;6.390;2024-03-07T01:58:31;27.25;;;15.75;;
20997;SDS011;10657;51.276;6.390;2024-03-07T02:01:01;20.90;;;12.27;;
20997;SDS011;10657;51.276;6.390;2024-03-07T02:03:28;21.70;;;11.65;;
20997;SDS011;10657;51.276;6.390;2024-03-07T02:05:55;19.73;;;10.38;;
20997;SDS011;10657;51.276;6.390;2024-03-07T02:08:22;22.52;;;12.45;;
20997;SDS011;10657;51.276;6.390;2024-03-07T02:10:49;23.35;;;13.07;;
20997;SDS011;10657;51.276;6.390;2024-03-07T02:13:16;20.83;;;11.13;;
20997;SDS011;10657;51.276;6.390;2024-03-07T02:15:43;29.52;;;15.90;;
20997;SDS011;10657;51.276;6.390;2024-03-07T02:18:10;24.60;;;12.70;;
20997;SDS011;10657;51.276;6.390;2024-03-07T02:20:37;25.25;;;12.93;;
20997;SDS011;10657;51.276;6.390;2024-03-07T02:23:08;30.98;;;14.60;;
20997;SDS011;10657;51.276;6.390;2024-03-07T02:25:35;22.52;;;12.50;;
20997;SDS011;10657;51.276;6.390;2024-03-07T02:28:04;23.65;;;12.18;;
20997;SDS011;10657;51.276;6.390;2024-03-07T02:30:31;26.73;;;12.05;;
20997;SDS011;10657;51.276;6.390;2024-03-07T02:32:58;17.20;;;9.23;;
20997;SDS011;10657;51.276;6.390;2024-03-07T02:35:33;23.15;;;13.07;;
20997;SDS011;10657;51.276;6.390;2024-03-07T02:38:04;22.77;;;12.20;;
20997;SDS011;10657;51.276;6.390;2024-03-07T02:40:31;24.48;;;13.13;;
20997;SDS011;10657;51.276;6.390;2024-03-07T02:42:58;21.80;;;11.82;;
20997;SDS011;10657;51.276;6.390;2024-03-07T02:45:25;28.17;;;14.68;;
20997;SDS011;10657;51.276;6.390;2024-03-07T02:47:52;23.88;;;11.65;;
20997;SDS011;10657;51.276;6.390;2024-03-07T02:50:20;24.10;;;14.07;;
20997;SDS011;10657;51.276;6.390;2024-03-07T02:52:48;23.08;;;12.27;;
20997;SDS011;10657;51.276;6.390;2024-03-07T02:55:15;25.33;;;13.65;;
20997;SDS011;10657;51.276;6.390;2024-03-07T02:57:43;19.92;;;11.63;;
20997;SDS011;10657;51.276;6.390;2024-03-07T03:00:11;25.20;;;14.40;;
20997;SDS011;10657;51.276;6.390;2024-03-07T03:02:52;22.83;;;13.10;;
20997;SDS011;10657;51.276;6.390;2024-03-07T03:05:19;31.20;;;16.55;;
20997;SDS011;10657;51.276;6.390;2024-03-07T03:07:46;35.25;;;20.52;;
20997;SDS011;10657;51.276;6.390;2024-03-07T03:10:22;21.73;;;12.05;;
20997;SDS011;10657;51.276;6.390;2024-03-07T03:12:53;26.85;;;13.85;;
20997;SDS011;10657;51.276;6.390;2024-03-07T03:15:20;24.17;;;12.77;;
20997;SDS011;10657;51.276;6.390;2024-03-07T03:17:47;23.40;;;12.48;;
20997;SDS011;10657;51.276;6.390;2024-03-07T03:20:15;32.35;;;19.50;;
20997;SDS011;10657;51.276;6.390;2024-03-07T03:22:51;22.95;;;12.93;;
20997;SDS011;10657;51.276;6.390;2024-03-07T03:25:39;28.00;;;13.48;;
20997;SDS011;10657;51.276;6.390;2024-03-07T03:28:07;21.95;;;11.38;;
20997;SDS011;10657;51.276;6.390;2024-03-07T03:30:38;26.20;;;14.38;;
20997;SDS011;10657;51.276;6.390;2024-03-07T03:33:05;21.38;;;11.32;;
20997;SDS011;10657;51.276;6.390;2024-03-07T03:35:33;22.35;;;12.20;;
20997;SDS011;10657;51.276;6.390;2024-03-07T03:38:00;21.42;;;11.75;;
20997;SDS011;10657;51.276;6.390;2024-03-07T03:40:27;25.30;;;14.07;;
20997;SDS011;10657;51.276;6.390;2024-03-07T03:42:54;25.05;;;12.75;;
20997;SDS011;10657;51.276;6.390;2024-03-07T03:45:23;24.15;;;13.85;;
20997;SDS011;10657;51.276;6.390;2024-03-07T03:47:51;23.52;;;12.38;;
20997;SDS011;10657;51.276;6.390;2024-03-07T03:50:22;23.90;;;13.82;;
20997;SDS011;10657;51.276;6.390;2024-03-07T03:52:49;21.90;;;12.20;;
20997;SDS011;10657;51.276;6.390;2024-03-07T03:55:16;24.00;;;12.93;;
20997;SDS011;10657;51.276;6.390;2024-03-07T03:57:43;24.33;;;12.38;;
20997;SDS011;10657;51.276;6.390;2024-03-07T04:00:13;23.70;;;12.38;;
20997;SDS011;10657;51.276;6.390;2024-03-07T04:05:15;22.83;;;12.20;;
20997;SDS011;10657;51.276;6.390;2024-03-07T04:07:45;28.40;;;14.02;;
20997;SDS011;10657;51.276;6.390;2024-03-07T04:10:12;20.35;;;10.88;;
20997;SDS011;10657;51.276;6.390;2024-03-07T04:12:41;36.22;;;21.45;;
20997;SDS011;10657;51.276;6.390;2024-03-07T04:15:08;28.30;;;12.98;;
20997;SDS011;10657;51.276;6.390;2024-03-07T04:17:44;27.23;;;14.00;;
20997;SDS011;10657;51.276;6.390;2024-03-07T04:20:15;20.40;;;11.73;;
20997;SDS011;10657;51.276;6.390;2024-03-07T04:22:44;22.73;;;12.68;;
20997;SDS011;10657;51.276;6.390;2024-03-07T04:25:11;25.05;;;12.63;;
20997;SDS011;10657;51.276;6.390;2024-03-07T04:27:38;23.30;;;13.90;;
20997;SDS011;10657;51.276;6.390;2024-03-07T04:30:06;21.90;;;11.82;;
20997;SDS011;10657;51.276;6.390;2024-03-07T04:32:36;20.73;;;12.20;;
20997;SDS011;10657;51.276;6.390;2024-03-07T04:35:04;21.60;;;12.15;;
20997;SDS011;10657;51.276;6.390;2024-03-07T04:37:34;25.75;;;12.95;;
20997;SDS011;10657;51.276;6.390;2024-03-07T04:40:06;19.50;;;11.18;;
20997;SDS011;10657;51.276;6.390;2024-03-07T04:42:47;24.65;;;11.77;;
20997;SDS011;10657;51.276;6.390;2024-03-07T04:45:16;21.92;;;11.63;;
20997;SDS011;10657;51.276;6.390;2024-03-07T04:47:44;22.35;;;12.77;;
20997;SDS011;10657;51.276;6.390;2024-03-07T04:50:13;20.67;;;11.45;;
20997;SDS011;10657;51.276;6.390;2024-03-07T04:52:43;23.05;;;11.70;;
20997;SDS011;10657;51.276;6.390;2024-03-07T04:55:14;24.98;;;12.98;;
20997;SDS011;10657;51.276;6.390;2024-03-07T04:57:41;21.50;;;11.57;;
20997;SDS011;10657;51.276;6.390;2024-03-07T05:00:11;22.20;;;12.27;;
20997;SDS011;10657;51.276;6.390;2024-03-07T05:02:44;18.77;;;10.95;;
20997;SDS011;10657;51.276;6.390;2024-03-07T05:05:13;23.13;;;12.18;;
20997;SDS011;10657;51.276;6.390;2024-03-07T05:07:41;20.65;;;11.85;;
20997;SDS011;10657;51.276;6.390;2024-03-07T05:10:07;22.33;;;12.30;;
20997;SDS011;10657;51.276;6.390;2024-03-07T05:12:35;21.00;;;10.73;;
20997;SDS011;10657;51.276;6.390;2024-03-07T05:15:04;21.13;;;12.68;;
20997;SDS011;10657;51.276;6.390;2024-03-07T05:17:31;23.77;;;11.82;;
20997;SDS011;10657;51.276;6.390;2024-03-07T05:20:01;21.20;;;11.95;;
20997;SDS011;10657;51.276;6.390;2024-03-07T05:22:31;23.23;;;12.10;;
20997;SDS011;10657;51.276;6.390;2024-03-07T05:24:58;23.48;;;12.88;;
20997;SDS011;10657;51.276;6.390;2024-03-07T05:27:25;23.42;;;12.15;;
20997;SDS011;10657;51.276;6.390;2024-03-07T05:29:54;19.85;;;12.07;;
20997;SDS011;10657;51.276;6.390;2024-03-07T05:32:25;27.55;;;12.48;;
20997;SDS011;10657;51.276;6.390;2024-03-07T05:34:53;23.38;;;13.13;;
20997;SDS011;10657;51.276;6.390;2024-03-07T05:37:20;21.90;;;12.05;;
20997;SDS011;10657;51.276;6.390;2024-03-07T05:39:50;23.90;;;12.75;;
20997;SDS011;10657;51.276;6.390;2024-03-07T05:42:18;22.40;;;12.95;;
20997;SDS011;10657;51.276;6.390;2024-03-07T05:44:45;25.10;;;13.77;;
20997;SDS011;10657;51.276;6.390;2024-03-07T05:47:13;20.30;;;11.63;;
20997;SDS011;10657;51.276;6.390;2024-03-07T05:49:40;24.40;;;12.07;;
20997;SDS011;10657;51.276;6.390;2024-03-07T05:52:07;28.33;;;13.63;;
20997;SDS011;10657;51.276;6.390;2024-03-07T05:54:34;35.65;;;16.70;;
20997;SDS011;10657;51.276;6.390;2024-03-07T05:57:02;23.15;;;11.95;;
20997;SDS011;10657;51.276;6.390;2024-03-07T05:59:29;35.15;;;16.88;;
20997;SDS011;10657;51.276;6.390;2024-03-07T06:01:57;52.60;;;29.95;;
20997;SDS011;10657;51.276;6.390;2024-03-07T06:04:24;34.22;;;16.48;;
20997;SDS011;10657;51.276;6.390;2024-03-07T06:06:50;38.92;;;23.50;;
20997;SDS011;10657;51.276;6.390;2024-03-07T06:09:17;35.83;;;20.52;;
20997;SDS011;10657;51.276;6.390;2024-03-07T06:11:50;23.95;;;13.13;;
20997;SDS011;10657;51.276;6.390;2024-03-07T06:14:17;46.95;;;28.75;;
20997;SDS011;10657;51.276;6.390;2024-03-07T06:16:44;24.63;;;13.60;;
20997;SDS011;10657;51.276;6.390;2024-03-07T06:19:11;27.63;;;15.90;;
20997;SDS011;10657;51.276;6.390;2024-03-07T06:21:39;25.50;;;15.13;;
20997;SDS011;10657;51.276;6.390;2024-03-07T06:24:07;24.15;;;13.73;;
20997;SDS011;10657;51.276;6.390;2024-03-07T06:26:37;26.67;;;14.18;;
20997;SDS011;10657;51.276;6.390;2024-03-07T06:29:07;23.33;;;12.70;;
20997;SDS011;10657;51.276;6.390;2024-03-07T06:31:34;24.88;;;14.00;;
20997;SDS011;10657;51.276;6.390;2024-03-07T06:34:01;24.73;;;14.00;;
20997;SDS011;10657;51.276;6.390;2024-03-07T06:36:28;40.80;;;26.52;;
20997;SDS011;10657;51.276;6.390;2024-03-07T06:38:55;23.13;;;14.23;;
20997;SDS011;10657;51.276;6.390;2024-03-07T06:41:21;23.48;;;13.27;;
20997;SDS011;10657;51.276;6.390;2024-03-07T06:43:48;22.65;;;13.63;;
20997;SDS011;10657;51.276;6.390;2024-03-07T06:46:18;22.13;;;13.77;;
20997;SDS011;10657;51.276;6.390;2024-03-07T06:48:46;21.63;;;12.60;;
20997;SDS011;10657;51.276;6.390;2024-03-07T06:51:13;25.35;;;15.45;;
20997;SDS011;10657;51.276;6.390;2024-03-07T06:53:44;23.20;;;13.40;;
20997;SDS011;10657;51.276;6.390;2024-03-07T06:56:14;22.33;;;14.77;;
20997;SDS011;10657;51.276;6.390;2024-03-07T06:58:43;20.27;;;12.55;;
20997;SDS011;10657;51.276;6.390;2024-03-07T07:01:12;22.73;;;14.27;;
20997;SDS011;10657;51.276;6.390;2024-03-07T07:03:41;21.27;;;12.80;;
20997;SDS011;10657;51.276;6.390;2024-03-07T07:06:12;25.23;;;15.82;;
20997;SDS011;10657;51.276;6.390;2024-03-07T07:08:38;21.35;;;12.70;;
20997;SDS011;10657;51.276;6.390;2024-03-07T07:11:05;19.92;;;12.48;;
20997;SDS011;10657;51.276;6.390;2024-03-07T07:13:32;22.23;;;13.38;;
20997;SDS011;10657;51.276;6.390;2024-03-07T07:16:02;25.90;;;15.10;;
20997;SDS011;10657;51.276;6.390;2024-03-07T07:18:29;18.85;;;11.90;;
20997;SDS011;10657;51.276;6.390;2024-03-07T07:20:56;23.27;;;15.25;;
20997;SDS011;10657;51.276;6.390;2024-03-07T07:23:24;27.15;;;19.02;;
20997;SDS011;10657;51.276;6.390;2024-03-07T07:25:52;22.23;;;12.43;;
20997;SDS011;10657;51.276;6.390;2024-03-07T07:28:19;24.30;;;13.68;;
20997;SDS011;10657;51.276;6.390;2024-03-07T07:30:46;25.30;;;17.25;;
20997;SDS011;10657;51.276;6.390;2024-03-07T07:33:13;21.50;;;12.98;;
20997;SDS011;10657;51.276;6.390;2024-03-07T07:35:40;19.58;;;12.23;;
20997;SDS011;10657;51.276;6.390;2024-03-07T07:38:07;20.23;;;12.55;;
20997;SDS011;10657;51.276;6.390;2024-03-07T07:40:37;14.05;;;6.85;;
20997;SDS011;10657;51.276;6.390;2024-03-07T07:43:07;21.83;;;11.68;;
20997;SDS011;10657;51.276;6.390;2024-03-07T07:45:34;14.45;;;7.57;;
20997;SDS011;10657;51.276;6.390;2024-03-07T07:48:02;26.40;;;14.18;;
20997;SDS011;10657;51.276;6.390;2024-03-07T07:50:29;20.35;;;11.82;;
20997;SDS011;10657;51.276;6.390;2024-03-07T07:52:59;16.00;;;10.00;;
20997;SDS011;10657;51.276;6.390;2024-03-07T07:55:26;11.35;;;6.13;;
20997;SDS011;10657;51.276;6.390;2024-03-07T07:57:55;15.80;;;9.25;;
20997;SDS011;10657;51.276;6.390;2024-03-07T08:00:26;15.88;;;7.47;;
20997;SDS011;10657;51.276;6.390;2024-03-07T08:05:32;13.13;;;7.15;;
20997;SDS011;10657;51.276;6.390;2024-03-07T08:08:00;12.50;;;6.88;;
20997;SDS011;10657;51.276;6.390;2024-03-07T08:10:33;19.13;;;11.55;;
20997;SDS011;10657;51.276;6.390;2024-03-07T08:13:02;12.38;;;6.60;;
20997;SDS011;10657;51.276;6.390;2024-03-07T08:15:30;17.48;;;10.13;;
20997;SDS011;10657;51.276;6.390;2024-03-07T08:17:57;19.27;;;11.55;;
20997;SDS011;10657;51.276;6.390;2024-03-07T08:20:28;20.13;;;12.18;;
20997;SDS011;10657;51.276;6.390;2024-03-07T08:22:58;25.38;;;14.23;;
20997;SDS011;10657;51.276;6.390;2024-03-07T08:25:26;23.73;;;12.43;;
20997;SDS011;10657;51.276;6.390;2024-03-07T08:27:56;25.48;;;14.07;;
20997;SDS011;10657;51.276;6.390;2024-03-07T08:30:27;18.95;;;10.43;;
20997;SDS011;10657;51.276;6.390;2024-03-07T08:32:55;17.67;;;9.95;;
20997;SDS011;10657;51.276;6.390;2024-03-07T08:35:23;4.80;;;1.92;;
20997;SDS011;10657;51.276;6.390;2024-03-07T08:37:52;21.38;;;12.73;;
20997;SDS011;10657;51.276;6.390;2024-03-07T08:40:26;12.38;;;6.43;;
20997;SDS011;10657;51.276;6.390;2024-03-07T08:42:57;12.18;;;5.72;;
20997;SDS011;10657;51.276;6.390;2024-03-07T08:45:25;12.05;;;6.43;;
20997;SDS011;10657;51.276;6.390;2024-03-07T08:47:53;11.10;;;6.30;;
20997;SDS011;10657;51.276;6.390;2024-03-07T08:50:21;13.80;;;6.25;;
20997;SDS011;10657;51.276;6.390;2024-03-07T08:52:49;10.60;;;4.70;;
20997;SDS011;10657;51.276;6.390;2024-03-07T08:55:20;10.00;;;5.05;;
20997;SDS011;10657;51.276;6.390;2024-03-07T08:57:49;13.50;;;7.05;;
20997;SDS011;10657;51.276;6.390;2024-03-07T09:00:16;10.20;;;5.22;;
20997;SDS011;10657;51.276;6.390;2024-03-07T09:02:57;13.57;;;5.75;;
20997;SDS011;10657;51.276;6.390;2024-03-07T09:05:29;12.07;;;5.78;;
20997;SDS011;10657;51.276;6.390;2024-03-07T09:07:58;12.23;;;6.35;;
20997;SDS011;10657;51.276;6.390;2024-03-07T09:10:26;11.27;;;5.75;;
20997;SDS011;10657;51.276;6.390;2024-03-07T09:12:56;15.98;;;6.68;;
20997;SDS011;10657;51.276;6.390;2024-03-07T09:15:24;17.40;;;9.60;;
20997;SDS011;10657;51.276;6.390;2024-03-07T09:17:51;13.32;;;6.38;;
20997;SDS011;10657;51.276;6.390;2024-03-07T09:20:19;18.50;;;8.20;;
20997;SDS011;10657;51.276;6.390;2024-03-07T09:22:48;11.98;;;5.72;;
20997;SDS011;10657;51.276;6.390;2024-03-07T09:25:16;10.77;;;6.28;;
20997;SDS011;10657;51.276;6.390;2024-03-07T09:27:46;13.77;;;5.95;;
20997;SDS011;10657;51.276;6.390;2024-03-07T09:30:13;6.13;;;2.10;;
20997;SDS011;10657;51.276;6.390;2024-03-07T09:32:45;13.50;;;7.15;;
20997;SDS011;10657;51.276;6.390;2024-03-07T09:35:12;11.35;;;5.65;;
20997;SDS011;10657;51.276;6.390;2024-03-07T09:37:40;12.10;;;5.88;;
20997;SDS011;10657;51.276;6.390;2024-03-07T09:40:08;13.10;;;5.45;;
20997;SDS011;10657;51.276;6.390;2024-03-07T09:42:44;14.48;;;5.50;;
20997;SDS011;10657;51.276;6.390;2024-03-07T09:45:16;13.02;;;6.75;;
20997;SDS011;10657;51.276;6.390;2024-03-07T09:47:47;12.00;;;5.65;;
20997;SDS011;10657;51.276;6.390;2024-03-07T09:50:18;18.92;;;10.95;;
20997;SDS011;10657;51.276;6.390;2024-03-07T09:52:48;14.07;;;7.75;;
20997;SDS011;10657;51.276;6.390;2024-03-07T09:55:19;14.27;;;7.05;;
20997;SDS011;10657;51.276;6.390;2024-03-07T09:57:48;12.70;;;5.78;;
20997;SDS011;10657;51.276;6.390;2024-03-07T10:00:23;11.75;;;6.22;;
20997;SDS011;10657;51.276;6.390;2024-03-07T10:03:10;11.90;;;6.05;;
20997;SDS011;10657;51.276;6.390;2024-03-07T10:05:49;11.25;;;6.20;;
20997;SDS011;10657;51.276;6.390;2024-03-07T10:08:19;11.60;;;5.32;;
20997;SDS011;10657;51.276;6.390;2024-03-07T10:10:47;11.57;;;4.80;;
20997;SDS011;10657;51.276;6.390;2024-03-07T10:13:17;7.88;;;3.80;;
20997;SDS011;10657;51.276;6.390;2024-03-07T10:15:44;9.48;;;4.00;;
20997;SDS011;10657;51.276;6.390;2024-03-07T10:18:13;10.52;;;4.80;;
20997;SDS011;10657;51.276;6.390;2024-03-07T10:20:48;12.30;;;6.90;;
20997;SDS011;10657;51.276;6.390;2024-03-07T10:23:19;12.68;;;6.03;;
20997;SDS011;10657;51.276;6.390;2024-03-07T10:25:49;10.00;;;5.38;;
20997;SDS011;10657;51.276;6.390;2024-03-07T10:28:17;11.93;;;6.45;;
20997;SDS011;10657;51.276;6.390;2024-03-07T10:30:44;11.38;;;5.30;;
20997;SDS011;10657;51.276;6.390;2024-03-07T10:33:11;10.57;;;5.63;;
20997;SDS011;10657;51.276;6.390;2024-03-07T10:35:39;11.18;;;5.30;;
20997;SDS011;10657;51.276;6.390;2024-03-07T10:38:05;8.98;;;3.30;;
20997;SDS011;10657;51.276;6.390;2024-03-07T10:40:34;11.48;;;5.78;;
20997;SDS011;10657;51.276;6.390;2024-03-07T10:43:10;6.25;;;3.10;;
20997;SDS011;10657;51.276;6.390;2024-03-07T10:48:13;11.15;;;5.07;;
20997;SDS011;10657;51.276;6.390;2024-03-07T10:50:52;16.30;;;7.55;;
20997;SDS011;10657;51.276;6.390;2024-03-07T10:53:34;10.82;;;5.60;;
20997;SDS011;10657;51.276;6.390;2024-03-07T10:56:14;3.65;;;1.60;;
20997;SDS011;10657;51.276;6.390;2024-03-07T11:01:11;11.70;;;5.57;;
20997;SDS011;10657;51.276;6.390;2024-03-07T11:03:40;10.82;;;5.07;;
20997;SDS011;10657;51.276;6.390;2024-03-07T11:06:08;13.38;;;7.35;;
20997;SDS011;10657;51.276;6.390;2024-03-07T11:08:38;9.77;;;5.03;;
20997;SDS011;10657;51.276;6.390;2024-03-07T11:11:08;10.60;;;5.93;;
20997;SDS011;10657;51.276;6.390;2024-03-07T11:13:34;12.25;;;4.78;;
20997;SDS011;10657;51.276;6.390;2024-03-07T11:16:06;9.40;;;4.85;;
20997;SDS011;10657;51.276;6.390;2024-03-07T11:18:36;10.52;;;5.07;;
20997;SDS011;10657;51.276;6.390;2024-03-07T11:21:03;8.75;;;3.90;;
20997;SDS011;10657;51.276;6.390;2024-03-07T11:23:32;10.27;;;5.10;;
20997;SDS011;10657;51.276;6.390;2024-03-07T11:26:06;15.15;;;5.28;;
20997;SDS011;10657;51.276;6.390;2024-03-07T11:28:35;16.48;;;5.72;;
20997;SDS011;10657;51.276;6.390;2024-03-07T11:31:10;10.95;;;5.22;;
20997;SDS011;10657;51.276;6.390;2024-03-07T11:36:47;10.10;;;4.93;;
20997;SDS011;10657;51.276;6.390;2024-03-07T11:39:38;8.70;;;3.13;;
20997;SDS011;10657;51.276;6.390;2024-03-07T11:44:45;11.10;;;5.10;;
20997;SDS011;10657;51.276;6.390;2024-03-07T11:47:12;11.13;;;5.10;;
20997;SDS011;10657;51.276;6.390;2024-03-07T11:49:39;11.52;;;4.97;;
20997;SDS011;10657;51.276;6.390;2024-03-07T11:52:06;10.57;;;5.13;;
20997;SDS011;10657;51.276;6.390;2024-03-07T11:54:39;10.05;;;4.75;;
20997;SDS011;10657;51.276;6.390;2024-03-07T11:57:12;12.48;;;3.30;;
20997;SDS011;10657;51.276;6.390;2024-03-07T11:59:41;4.00;;;1.58;;
20997;SDS011;10657;51.276;6.390;2024-03-07T12:02:15;9.35;;;4.93;;
20997;SDS011;10657;51.276;6.390;2024-03-07T12:04:44;12.77;;;5.25;;
20997;SDS011;10657;51.276;6.390;2024-03-07T12:07:10;10.35;;;4.18;;
20997;SDS011;10657;51.276;6.390;2024-03-07T12:09:38;4.93;;;2.22;;
20997;SDS011;10657;51.276;6.390;2024-03-07T12:12:06;9.88;;;4.70;;
20997;SDS011;10657;51.276;6.390;2024-03-07T12:14:33;11.18;;;5.28;;
20997;SDS011;10657;51.276;6.390;2024-03-07T12:17:01;12.40;;;5.13;;
20997;SDS011;10657;51.276;6.390;2024-03-07T12:19:33;10.02;;;5.28;;
20997;SDS011;10657;51.276;6.390;2024-03-07T12:22:00;10.07;;;5.00;;
20997;SDS011;10657;51.276;6.390;2024-03-07T12:24:45;15.00;;;8.35;;
20997;SDS011;10657;51.276;6.390;2024-03-07T12:27:14;10.80;;;6.50;;
20997;SDS011;10657;51.276;6.390;2024-03-07T12:29:42;9.35;;;4.95;;
20997;SDS011;10657;51.276;6.390;2024-03-07T12:32:12;9.55;;;4.53;;
20997;SDS011;10657;51.276;6.390;2024-03-07T12:34:48;10.15;;;4.70;;
20997;SDS011;10657;51.276;6.390;2024-03-07T12:37:14;15.48;;;9.05;;
20997;SDS011;10657;51.276;6.390;2024-03-07T12:39:43;9.80;;;5.30;;
20997;SDS011;10657;51.276;6.390;2024-03-07T12:42:18;11.45;;;5.07;;
20997;SDS011;10657;51.276;6.390;2024-03-07T12:44:46;9.80;;;4.47;;
20997;SDS011;10657;51.276;6.390;2024-03-07T12:47:15;7.25;;;3.22;;
20997;SDS011;10657;51.276;6.390;2024-03-07T12:49:43;9.32;;;4.35;;
20997;SDS011;10657;51.276;6.390;2024-03-07T12:52:11;9.02;;;4.55;;
20997;SDS011;10657;51.276;6.390;2024-03-07T12:54:41;8.10;;;3.28;;
20997;SDS011;10657;51.276;6.390;2024-03-07T12:57:09;9.50;;;4.82;;
20997;SDS011;10657;51.276;6.390;2024-03-07T12:59:40;9.98;;;5.07;;
20997;SDS011;10657;51.276;6.390;2024-03-07T13:02:07;11.43;;;5.60;;
20997;SDS011;10657;51.276;6.390;2024-03-07T13:04:35;8.35;;;3.63;;
20997;SDS011;10657;51.276;6.390;2024-03-07T13:07:09;10.32;;;4.93;;
20997;SDS011;10657;51.276;6.390;2024-03-07T13:09:36;10.60;;;5.07;;
20997;SDS011;10657;51.276;6.390;2024-03-07T13:12:04;9.82;;;4.75;;
20997;SDS011;10657;51.276;6.390;2024-03-07T13:14:35;16.67;;;8.35;;
20997;SDS011;10657;51.276;6.390;2024-03-07T13:17:02;10.00;;;4.63;;
20997;SDS011;10657;51.276;6.390;2024-03-07T13:19:33;9.45;;;5.18;;
20997;SDS011;10657;51.276;6.390;2024-03-07T13:22:00;13.40;;;6.75;;
20997;SDS011;10657;51.276;6.390;2024-03-07T13:24:27;9.57;;;4.43;;
20997;SDS011;10657;51.276;6.390;2024-03-07T13:26:54;13.20;;;6.53;;
20997;SDS011;10657;51.276;6.390;2024-03-07T13:29:21;9.25;;;4.88;;
20997;SDS011;10657;51.276;6.390;2024-03-07T13:31:51;8.20;;;3.63;;
20997;SDS011;10657;51.276;6.390;2024-03-07T13:34:19;8.68;;;3.53;;
20997;SDS011;10657;51.276;6.390;2024-03-07T13:36:45;8.68;;;4.40;;
20997;SDS011;10657;51.276;6.390;2024-03-07T13:39:12;8.45;;;3.75;;
20997;SDS011;10657;51.276;6.390;2024-03-07T13:41:43;10.65;;;4.18;;
20997;SDS011;10657;51.276;6.390;2024-03-07T13:44:17;12.40;;;4.88;;
20997;SDS011;10657;51.276;6.390;2024-03-07T13:46:45;9.73;;;4.03;;
20997;SDS011;10657;51.276;6.390;2024-03-07T13:49:12;8.07;;;3.63;;
20997;SDS011;10657;51.276;6.390;2024-03-07T13:51:40;10.45;;;5.40;;
20997;SDS011;10657;51.276;6.390;2024-03-07T13:54:26;8.90;;;4.20;;
20997;SDS011;10657;51.276;6.390;2024-03-07T14:05:53;10.10;;;4.13;;
20997;SDS011;10657;51.276;6.390;2024-03-07T14:32:36;9.05;;;4.60;;
20997;SDS011;10657;51.276;6.390;2024-03-07T14:40:07;8.98;;;3.85;;
20997;SDS011;10657;51.276;6.390;2024-03-07T14:42:44;11.65;;;5.88;;
20997;SDS011;10657;51.276;6.390;2024-03-07T14:45:19;13.20;;;4.47;;
20997;SDS011;10657;51.276;6.390;2024-03-07T14:47:50;8.80;;;4.32;;
20997;SDS011;10657;51.276;6.390;2024-03-07T14:50:21;7.18;;;2.78;;
20997;SDS011;10657;51.276;6.390;2024-03-07T14:52:49;5.35;;;2.35;;
20997;SDS011;10657;51.276;6.390;2024-03-07T14:55:16;9.23;;;3.95;;
20997;SDS011;10657;51.276;6.390;2024-03-07T14:57:45;5.22;;;2.38;;
20997;SDS011;10657;51.276;6.390;2024-03-07T15:00:12;9.40;;;4.93;;
20997;SDS011;10657;51.276;6.390;2024-03-07T15:02:59;6.00;;;2.80;;
20997;SDS011;10657;51.276;6.390;2024-03-07T15:05:27;12.20;;;5.25;;
20997;SDS011;10657;51.276;6.390;2024-03-07T15:07:54;10.48;;;4.43;;
20997;SDS011;10657;51.276;6.390;2024-03-07T15:10:25;3.78;;;1.65;;
20997;SDS011;10657;51.276;6.390;2024-03-07T15:12:54;10.45;;;4.63;;
20997;SDS011;10657;51.276;6.390;2024-03-07T15:15:21;6.38;;;2.65;;
20997;SDS011;10657;51.276;6.390;2024-03-07T15:17:50;14.00;;;4.72;;
20997;SDS011;10657;51.276;6.390;2024-03-07T15:20:17;9.00;;;4.40;;
20997;SDS011;10657;51.276;6.390;2024-03-07T15:22:53;11.30;;;4.88;;
20997;SDS011;10657;51.276;6.390;2024-03-07T15:25:28;11.15;;;4.28;;
20997;SDS011;10657;51.276;6.390;2024-03-07T15:27:56;8.82;;;4.70;;
20997;SDS011;10657;51.276;6.390;2024-03-07T15:30:25;10.18;;;4.90;;
20997;SDS011;10657;51.276;6.390;2024-03-07T15:33:03;4.72;;;1.85;;